sensor_id;sensor_type;location;lat;lon;timestamp;temperature;humidity
563;DHT22;266;49.514;8.294;2023-09-08T00:01:41;15.90;99.90
563;DHT22;266;49.514;8.294;2023-09-08T00:04:09;15.90;99.90
563;DHT22;266;49.514;8.294;2023-09-08T00:06:38;15.90;99.90
563;DHT22;266;49.514;8.294;2023-09-08T00:09:07;15.90;99.90
563;DHT22;266;49.514;8.294;2023-09-08T00:11:37;15.90;99.90
563;DHT22;266;49.514;8.294;2023-09-08T00:14:06;15.90;99.90
563;DHT22;266;49.514;8.294;2023-09-08T00:16:34;15.80;99.90
563;DHT22;266;49.514;8.294;2023-09-08T00:19:02;15.80;99.90
563;DHT22;266;49.514;8.294;2023-09-08T00:21:30;15.80;99.90
563;DHT22;266;49.514;8.294;2023-09-08T00:23:58;15.80;99.90
563;DHT22;266;49.514;8.294;2023-09-08T00:26:27;15.80;99.90
563;DHT22;266;49.514;8.294;2023-09-08T00:28:55;15.80;99.90
563;DHT22;266;49.514;8.294;2023-09-08T00:31:25;15.80;99.90
563;DHT22;266;49.514;8.294;2023-09-08T00:33:53;15.80;99.90
563;DHT22;266;49.514;8.294;2023-09-08T00:36:21;15.80;99.90
563;DHT22;266;49.514;8.294;2023-09-08T00:38:49;15.80;99.90
563;DHT22;266;49.514;8.294;2023-09-08T00:41:17;15.70;99.90
563;DHT22;266;49.514;8.294;2023-09-08T00:43:45;15.60;99.90
563;DHT22;266;49.514;8.294;2023-09-08T00:46:13;15.50;99.90
563;DHT22;266;49.514;8.294;2023-09-08T00:48:42;15.40;99.90
563;DHT22;266;49.514;8.294;2023-09-08T00:51:11;15.40;99.90
563;DHT22;266;49.514;8.294;2023-09-08T00:53:39;15.40;99.90
563;DHT22;266;49.514;8.294;2023-09-08T00:56:08;15.50;99.90
563;DHT22;266;49.514;8.294;2023-09-08T00:58:37;15.60;99.90
563;DHT22;266;49.514;8.294;2023-09-08T01:01:05;15.50;99.90
563;DHT22;266;49.514;8.294;2023-09-08T01:03:34;15.40;99.90
563;DHT22;266;49.514;8.294;2023-09-08T01:06:04;15.30;99.90
563;DHT22;266;49.514;8.294;2023-09-08T01:08:34;15.20;99.90
563;DHT22;266;49.514;8.294;2023-09-08T01:11:03;15.20;99.90
563;DHT22;266;49.514;8.294;2023-09-08T01:13:31;15.20;99.90
563;DHT22;266;49.514;8.294;2023-09-08T01:15:59;15.10;99.90
563;DHT22;266;49.514;8.294;2023-09-08T01:18:27;15.10;99.90
563;DHT22;266;49.514;8.294;2023-09-08T01:21:10;15.20;99.90
563;DHT22;266;49.514;8.294;2023-09-08T01:23:53;15.20;99.90
563;DHT22;266;49.514;8.294;2023-09-08T01:26:26;15.20;99.90
563;DHT22;266;49.514;8.294;2023-09-08T01:28:55;15.10;99.90
563;DHT22;266;49.514;8.294;2023-09-08T01:31:23;15.00;99.90
563;DHT22;266;49.514;8.294;2023-09-08T01:33:52;15.00;99.90
563;DHT22;266;49.514;8.294;2023-09-08T01:36:20;15.10;99.90
563;DHT22;266;49.514;8.294;2023-09-08T01:38:48;15.20;99.90
563;DHT22;266;49.514;8.294;2023-09-08T01:41:16;15.20;99.90
563;DHT22;266;49.514;8.294;2023-09-08T01:43:46;15.30;99.90
563;DHT22;266;49.514;8.294;2023-09-08T01:46:14;15.30;99.90
563;DHT22;266;49.514;8.294;2023-09-08T01:48:42;15.20;99.90
563;DHT22;266;49.514;8.294;2023-09-08T01:51:10;15.20;99.90
563;DHT22;266;49.514;8.294;2023-09-08T01:53:38;15.10;99.90
563;DHT22;266;49.514;8.294;2023-09-08T01:56:08;15.00;99.90
563;DHT22;266;49.514;8.294;2023-09-08T01:58:36;14.90;99.90
563;DHT22;266;49.514;8.294;2023-09-08T02:01:06;14.90;99.90
563;DHT22;266;49.514;8.294;2023-09-08T02:03:34;14.90;99.90
563;DHT22;266;49.514;8.294;2023-09-08T02:06:17;14.90;99.90
563;DHT22;266;49.514;8.294;2023-09-08T02:08:45;14.80;99.90
563;DHT22;266;49.514;8.294;2023-09-08T02:11:13;14.70;99.90
563;DHT22;266;49.514;8.294;2023-09-08T02:13:42;14.60;99.90
563;DHT22;266;49.514;8.294;2023-09-08T02:16:14;14.50;99.90
563;DHT22;266;49.514;8.294;2023-09-08T02:18:43;14.50;99.90
563;DHT22;266;49.514;8.294;2023-09-08T02:21:11;14.40;99.90
563;DHT22;266;49.514;8.294;2023-09-08T02:23:39;14.30;99.90
563;DHT22;266;49.514;8.294;2023-09-08T02:26:07;14.30;99.90
563;DHT22;266;49.514;8.294;2023-09-08T02:28:35;14.20;99.90
563;DHT22;266;49.514;8.294;2023-09-08T02:31:04;14.20;99.90
563;DHT22;266;49.514;8.294;2023-09-08T02:33:33;14.20;99.90
563;DHT22;266;49.514;8.294;2023-09-08T02:36:03;14.20;99.90
563;DHT22;266;49.514;8.294;2023-09-08T02:38:31;14.20;99.90
563;DHT22;266;49.514;8.294;2023-09-08T02:41:00;14.10;99.90
563;DHT22;266;49.514;8.294;2023-09-08T02:43:28;14.10;99.90
563;DHT22;266;49.514;8.294;2023-09-08T02:45:56;14.10;99.90
563;DHT22;266;49.514;8.294;2023-09-08T02:48:25;14.00;99.90
563;DHT22;266;49.514;8.294;2023-09-08T02:50:54;14.10;99.90
563;DHT22;266;49.514;8.294;2023-09-08T02:53:23;14.10;99.90
563;DHT22;266;49.514;8.294;2023-09-08T02:55:55;14.00;99.90
563;DHT22;266;49.514;8.294;2023-09-08T02:58:23;14.00;99.90
563;DHT22;266;49.514;8.294;2023-09-08T03:00:52;14.00;99.90
563;DHT22;266;49.514;8.294;2023-09-08T03:03:20;14.00;99.90
563;DHT22;266;49.514;8.294;2023-09-08T03:05:48;13.90;99.90
563;DHT22;266;49.514;8.294;2023-09-08T03:08:24;13.90;99.90
563;DHT22;266;49.514;8.294;2023-09-08T03:10:55;13.90;99.90
563;DHT22;266;49.514;8.294;2023-09-08T03:13:24;13.90;99.90
563;DHT22;266;49.514;8.294;2023-09-08T03:15:53;13.80;99.90
563;DHT22;266;49.514;8.294;2023-09-08T03:18:21;13.70;99.90
563;DHT22;266;49.514;8.294;2023-09-08T03:20:49;13.70;99.90
563;DHT22;266;49.514;8.294;2023-09-08T03:23:18;13.70;99.90
563;DHT22;266;49.514;8.294;2023-09-08T03:25:48;13.60;99.90
563;DHT22;266;49.514;8.294;2023-09-08T03:28:16;13.60;99.90
563;DHT22;266;49.514;8.294;2023-09-08T03:30:44;13.50;99.90
563;DHT22;266;49.514;8.294;2023-09-08T03:33:12;13.50;99.90
563;DHT22;266;49.514;8.294;2023-09-08T03:35:41;13.50;99.90
563;DHT22;266;49.514;8.294;2023-09-08T03:38:08;13.50;99.90
563;DHT22;266;49.514;8.294;2023-09-08T03:40:36;13.50;99.90
563;DHT22;266;49.514;8.294;2023-09-08T03:43:06;13.50;99.90
563;DHT22;266;49.514;8.294;2023-09-08T03:45:34;13.50;99.90
563;DHT22;266;49.514;8.294;2023-09-08T03:48:03;13.50;99.90
563;DHT22;266;49.514;8.294;2023-09-08T03:50:31;13.40;99.90
563;DHT22;266;49.514;8.294;2023-09-08T03:52:59;13.40;99.90
563;DHT22;266;49.514;8.294;2023-09-08T03:55:27;13.30;99.90
563;DHT22;266;49.514;8.294;2023-09-08T03:57:55;13.20;99.90
563;DHT22;266;49.514;8.294;2023-09-08T04:00:25;13.20;99.90
563;DHT22;266;49.514;8.294;2023-09-08T04:02:53;13.10;99.90
563;DHT22;266;49.514;8.294;2023-09-08T04:05:21;13.10;99.90
563;DHT22;266;49.514;8.294;2023-09-08T04:07:49;13.10;99.90
563;DHT22;266;49.514;8.294;2023-09-08T04:10:17;13.10;99.90
563;DHT22;266;49.514;8.294;2023-09-08T04:12:45;13.10;99.90
563;DHT22;266;49.514;8.294;2023-09-08T04:15:13;13.10;99.90
563;DHT22;266;49.514;8.294;2023-09-08T04:17:45;13.10;99.90
563;DHT22;266;49.514;8.294;2023-09-08T04:20:13;13.10;99.90
563;DHT22;266;49.514;8.294;2023-09-08T04:22:42;13.10;99.90
563;DHT22;266;49.514;8.294;2023-09-08T04:25:10;13.00;99.90
563;DHT22;266;49.514;8.294;2023-09-08T04:27:38;13.00;99.90
563;DHT22;266;49.514;8.294;2023-09-08T04:30:08;12.90;99.90
563;DHT22;266;49.514;8.294;2023-09-08T04:32:36;12.90;99.90
563;DHT22;266;49.514;8.294;2023-09-08T04:35:07;12.90;99.90
563;DHT22;266;49.514;8.294;2023-09-08T04:37:35;12.90;99.90
563;DHT22;266;49.514;8.294;2023-09-08T04:40:05;13.00;99.90
563;DHT22;266;49.514;8.294;2023-09-08T04:42:33;13.00;99.90
563;DHT22;266;49.514;8.294;2023-09-08T04:45:01;13.00;99.90
563;DHT22;266;49.514;8.294;2023-09-08T04:47:30;13.00;99.90
563;DHT22;266;49.514;8.294;2023-09-08T04:49:58;13.00;99.90
563;DHT22;266;49.514;8.294;2023-09-08T04:52:28;13.00;99.90
563;DHT22;266;49.514;8.294;2023-09-08T04:54:56;13.00;99.90
563;DHT22;266;49.514;8.294;2023-09-08T04:57:24;13.00;99.90
563;DHT22;266;49.514;8.294;2023-09-08T04:59:53;13.00;99.90
563;DHT22;266;49.514;8.294;2023-09-08T05:02:20;13.00;99.90
563;DHT22;266;49.514;8.294;2023-09-08T05:04:49;13.10;99.90
563;DHT22;266;49.514;8.294;2023-09-08T05:07:17;13.10;99.90
563;DHT22;266;49.514;8.294;2023-09-08T05:09:47;13.10;99.90
563;DHT22;266;49.514;8.294;2023-09-08T05:12:15;13.10;99.90
563;DHT22;266;49.514;8.294;2023-09-08T05:14:43;13.10;99.90
563;DHT22;266;49.514;8.294;2023-09-08T05:17:11;13.10;99.90
563;DHT22;266;49.514;8.294;2023-09-08T05:19:39;13.10;99.90
563;DHT22;266;49.514;8.294;2023-09-08T05:22:07;13.10;99.90
563;DHT22;266;49.514;8.294;2023-09-08T05:24:35;13.00;99.90
563;DHT22;266;49.514;8.294;2023-09-08T05:27:04;13.00;99.90
563;DHT22;266;49.514;8.294;2023-09-08T05:29:32;13.00;99.90
563;DHT22;266;49.514;8.294;2023-09-08T05:32:00;13.00;99.90
563;DHT22;266;49.514;8.294;2023-09-08T05:34:28;13.00;99.90
563;DHT22;266;49.514;8.294;2023-09-08T05:36:56;13.10;99.90
563;DHT22;266;49.514;8.294;2023-09-08T05:39:24;13.20;99.90
563;DHT22;266;49.514;8.294;2023-09-08T05:41:52;13.30;99.90
563;DHT22;266;49.514;8.294;2023-09-08T05:44:22;13.50;99.90
563;DHT22;266;49.514;8.294;2023-09-08T05:46:51;13.50;99.90
563;DHT22;266;49.514;8.294;2023-09-08T05:49:20;13.60;99.90
563;DHT22;266;49.514;8.294;2023-09-08T05:51:48;13.70;99.90
563;DHT22;266;49.514;8.294;2023-09-08T05:54:16;13.70;99.90
563;DHT22;266;49.514;8.294;2023-09-08T05:56:44;13.80;99.90
563;DHT22;266;49.514;8.294;2023-09-08T05:59:12;13.90;99.90
563;DHT22;266;49.514;8.294;2023-09-08T06:01:41;14.10;99.90
563;DHT22;266;49.514;8.294;2023-09-08T06:04:09;14.20;99.90
563;DHT22;266;49.514;8.294;2023-09-08T06:06:38;14.30;99.90
563;DHT22;266;49.514;8.294;2023-09-08T06:09:06;14.40;99.90
563;DHT22;266;49.514;8.294;2023-09-08T06:11:35;14.60;99.90
563;DHT22;266;49.514;8.294;2023-09-08T06:14:03;14.70;99.90
563;DHT22;266;49.514;8.294;2023-09-08T06:16:31;14.80;99.90
563;DHT22;266;49.514;8.294;2023-09-08T06:19:00;14.90;99.90
563;DHT22;266;49.514;8.294;2023-09-08T06:21:29;15.00;99.90
563;DHT22;266;49.514;8.294;2023-09-08T06:23:57;15.20;99.90
563;DHT22;266;49.514;8.294;2023-09-08T06:26:25;15.30;99.90
563;DHT22;266;49.514;8.294;2023-09-08T06:28:53;15.40;99.90
563;DHT22;266;49.514;8.294;2023-09-08T06:31:21;15.60;99.90
563;DHT22;266;49.514;8.294;2023-09-08T06:33:52;15.70;99.90
563;DHT22;266;49.514;8.294;2023-09-08T06:36:22;15.70;99.90
563;DHT22;266;49.514;8.294;2023-09-08T06:38:50;15.80;99.90
563;DHT22;266;49.514;8.294;2023-09-08T06:41:18;15.90;99.90
563;DHT22;266;49.514;8.294;2023-09-08T06:43:46;15.90;99.90
563;DHT22;266;49.514;8.294;2023-09-08T06:46:14;16.00;99.90
563;DHT22;266;49.514;8.294;2023-09-08T06:48:42;16.20;99.90
563;DHT22;266;49.514;8.294;2023-09-08T06:51:10;16.30;99.90
563;DHT22;266;49.514;8.294;2023-09-08T06:53:38;16.40;99.90
563;DHT22;266;49.514;8.294;2023-09-08T06:56:06;16.50;99.90
563;DHT22;266;49.514;8.294;2023-09-08T06:58:34;16.60;99.90
563;DHT22;266;49.514;8.294;2023-09-08T07:01:03;16.70;99.90
563;DHT22;266;49.514;8.294;2023-09-08T07:03:31;16.90;99.90
563;DHT22;266;49.514;8.294;2023-09-08T07:06:04;17.00;99.90
563;DHT22;266;49.514;8.294;2023-09-08T07:08:32;17.10;99.90
563;DHT22;266;49.514;8.294;2023-09-08T07:11:02;17.20;99.90
563;DHT22;266;49.514;8.294;2023-09-08T07:13:31;17.40;99.90
563;DHT22;266;49.514;8.294;2023-09-08T07:16:00;17.50;99.90
563;DHT22;266;49.514;8.294;2023-09-08T07:18:28;17.60;99.90
563;DHT22;266;49.514;8.294;2023-09-08T07:20:59;17.70;99.90
563;DHT22;266;49.514;8.294;2023-09-08T07:23:27;17.80;99.90
563;DHT22;266;49.514;8.294;2023-09-08T07:25:55;18.00;99.90
563;DHT22;266;49.514;8.294;2023-09-08T07:28:25;18.10;99.90
563;DHT22;266;49.514;8.294;2023-09-08T07:30:53;18.20;99.90
563;DHT22;266;49.514;8.294;2023-09-08T07:33:21;18.30;99.90
563;DHT22;266;49.514;8.294;2023-09-08T07:35:49;18.50;99.90
563;DHT22;266;49.514;8.294;2023-09-08T07:38:17;18.70;99.90
563;DHT22;266;49.514;8.294;2023-09-08T07:40:44;18.90;99.90
563;DHT22;266;49.514;8.294;2023-09-08T07:43:12;19.20;99.90
563;DHT22;266;49.514;8.294;2023-09-08T07:45:41;19.60;99.90
563;DHT22;266;49.514;8.294;2023-09-08T07:48:09;20.00;99.90
563;DHT22;266;49.514;8.294;2023-09-08T07:50:37;20.60;99.90
563;DHT22;266;49.514;8.294;2023-09-08T07:53:05;21.10;99.90
563;DHT22;266;49.514;8.294;2023-09-08T07:55:33;21.60;99.90
563;DHT22;266;49.514;8.294;2023-09-08T07:58:02;22.30;99.90
563;DHT22;266;49.514;8.294;2023-09-08T08:00:30;22.80;99.90
563;DHT22;266;49.514;8.294;2023-09-08T08:03:00;23.20;99.90
563;DHT22;266;49.514;8.294;2023-09-08T08:05:28;23.50;99.90
563;DHT22;266;49.514;8.294;2023-09-08T08:07:56;24.10;99.90
563;DHT22;266;49.514;8.294;2023-09-08T08:10:24;24.50;99.90
563;DHT22;266;49.514;8.294;2023-09-08T08:12:52;24.80;99.90
563;DHT22;266;49.514;8.294;2023-09-08T08:15:21;25.20;99.90
563;DHT22;266;49.514;8.294;2023-09-08T08:17:49;25.50;99.90
563;DHT22;266;49.514;8.294;2023-09-08T08:20:18;25.80;99.90
563;DHT22;266;49.514;8.294;2023-09-08T08:22:46;26.10;99.90
563;DHT22;266;49.514;8.294;2023-09-08T08:25:14;26.40;99.90
563;DHT22;266;49.514;8.294;2023-09-08T08:27:43;26.70;99.90
563;DHT22;266;49.514;8.294;2023-09-08T08:30:12;27.00;99.90
563;DHT22;266;49.514;8.294;2023-09-08T08:32:40;27.30;99.90
563;DHT22;266;49.514;8.294;2023-09-08T08:35:08;27.70;99.90
563;DHT22;266;49.514;8.294;2023-09-08T08:37:39;28.10;99.90
563;DHT22;266;49.514;8.294;2023-09-08T08:40:09;28.20;99.90
563;DHT22;266;49.514;8.294;2023-09-08T08:42:39;28.30;99.90
563;DHT22;266;49.514;8.294;2023-09-08T08:45:08;28.70;99.90
563;DHT22;266;49.514;8.294;2023-09-08T08:47:36;28.90;99.90
563;DHT22;266;49.514;8.294;2023-09-08T08:50:05;29.10;99.90
563;DHT22;266;49.514;8.294;2023-09-08T08:52:39;29.10;99.90
563;DHT22;266;49.514;8.294;2023-09-08T08:55:08;29.10;99.90
563;DHT22;266;49.514;8.294;2023-09-08T08:57:37;29.20;99.90
563;DHT22;266;49.514;8.294;2023-09-08T09:00:07;29.40;99.90
563;DHT22;266;49.514;8.294;2023-09-08T09:02:39;29.40;99.90
563;DHT22;266;49.514;8.294;2023-09-08T09:05:09;29.40;99.90
563;DHT22;266;49.514;8.294;2023-09-08T09:07:41;28.90;99.90
563;DHT22;266;49.514;8.294;2023-09-08T09:10:09;28.70;99.90
563;DHT22;266;49.514;8.294;2023-09-08T09:12:38;28.60;99.90
563;DHT22;266;49.514;8.294;2023-09-08T09:15:07;28.40;99.90
563;DHT22;266;49.514;8.294;2023-09-08T09:17:36;28.40;99.90
563;DHT22;266;49.514;8.294;2023-09-08T09:20:14;28.40;99.90
563;DHT22;266;49.514;8.294;2023-09-08T09:22:48;28.10;99.90
563;DHT22;266;49.514;8.294;2023-09-08T09:25:24;28.20;99.90
563;DHT22;266;49.514;8.294;2023-09-08T09:27:53;28.20;99.90
563;DHT22;266;49.514;8.294;2023-09-08T09:30:25;28.60;99.90
563;DHT22;266;49.514;8.294;2023-09-08T09:33:00;28.90;99.90
563;DHT22;266;49.514;8.294;2023-09-08T09:35:43;28.90;99.90
563;DHT22;266;49.514;8.294;2023-09-08T09:38:12;29.10;99.90
563;DHT22;266;49.514;8.294;2023-09-08T09:40:41;29.10;99.90
563;DHT22;266;49.514;8.294;2023-09-08T09:43:10;29.00;99.90
563;DHT22;266;49.514;8.294;2023-09-08T09:45:40;29.10;99.90
563;DHT22;266;49.514;8.294;2023-09-08T09:48:09;29.30;99.90
563;DHT22;266;49.514;8.294;2023-09-08T09:50:39;29.40;99.90
563;DHT22;266;49.514;8.294;2023-09-08T09:53:13;29.30;99.90
563;DHT22;266;49.514;8.294;2023-09-08T09:55:43;29.60;99.90
563;DHT22;266;49.514;8.294;2023-09-08T09:58:11;30.10;99.90
563;DHT22;266;49.514;8.294;2023-09-08T10:00:41;30.20;99.90
563;DHT22;266;49.514;8.294;2023-09-08T10:03:15;30.10;99.90
563;DHT22;266;49.514;8.294;2023-09-08T10:05:43;30.10;99.90
563;DHT22;266;49.514;8.294;2023-09-08T10:08:15;30.20;99.90
563;DHT22;266;49.514;8.294;2023-09-08T10:10:45;29.90;99.90
563;DHT22;266;49.514;8.294;2023-09-08T10:13:23;29.80;99.90
563;DHT22;266;49.514;8.294;2023-09-08T10:15:56;29.70;99.90
563;DHT22;266;49.514;8.294;2023-09-08T10:18:25;29.70;99.90
563;DHT22;266;49.514;8.294;2023-09-08T10:20:56;29.60;99.90
563;DHT22;266;49.514;8.294;2023-09-08T10:23:33;29.60;99.90
563;DHT22;266;49.514;8.294;2023-09-08T10:26:05;29.10;99.90
563;DHT22;266;49.514;8.294;2023-09-08T10:28:34;28.80;99.90
563;DHT22;266;49.514;8.294;2023-09-08T10:31:04;28.60;99.90
563;DHT22;266;49.514;8.294;2023-09-08T10:33:33;28.80;99.90
563;DHT22;266;49.514;8.294;2023-09-08T10:36:02;28.90;99.90
563;DHT22;266;49.514;8.294;2023-09-08T10:38:34;29.00;99.90
563;DHT22;266;49.514;8.294;2023-09-08T10:41:28;29.20;99.90
563;DHT22;266;49.514;8.294;2023-09-08T10:44:02;29.20;99.90
563;DHT22;266;49.514;8.294;2023-09-08T10:46:32;29.30;99.90
563;DHT22;266;49.514;8.294;2023-09-08T10:49:03;29.20;99.90
563;DHT22;266;49.514;8.294;2023-09-08T10:51:34;28.90;99.90
563;DHT22;266;49.514;8.294;2023-09-08T10:54:05;28.90;99.90
563;DHT22;266;49.514;8.294;2023-09-08T10:56:54;28.80;99.90
563;DHT22;266;49.514;8.294;2023-09-08T10:59:22;28.90;99.90
563;DHT22;266;49.514;8.294;2023-09-08T11:01:55;28.80;99.90
563;DHT22;266;49.514;8.294;2023-09-08T11:04:24;28.90;99.90
563;DHT22;266;49.514;8.294;2023-09-08T11:06:53;28.90;99.90
563;DHT22;266;49.514;8.294;2023-09-08T11:09:25;29.10;99.90
563;DHT22;266;49.514;8.294;2023-09-08T11:11:52;29.20;99.90
563;DHT22;266;49.514;8.294;2023-09-08T11:14:21;29.10;99.90
563;DHT22;266;49.514;8.294;2023-09-08T11:16:49;28.90;99.90
563;DHT22;266;49.514;8.294;2023-09-08T11:19:17;29.00;99.90
563;DHT22;266;49.514;8.294;2023-09-08T11:21:45;29.10;99.90
563;DHT22;266;49.514;8.294;2023-09-08T11:24:16;29.50;99.90
563;DHT22;266;49.514;8.294;2023-09-08T11:26:46;29.80;99.90
563;DHT22;266;49.514;8.294;2023-09-08T11:29:17;30.10;99.90
563;DHT22;266;49.514;8.294;2023-09-08T11:31:51;30.10;99.90
563;DHT22;266;49.514;8.294;2023-09-08T11:34:20;30.20;99.90
563;DHT22;266;49.514;8.294;2023-09-08T11:36:48;30.40;99.90
563;DHT22;266;49.514;8.294;2023-09-08T11:39:17;30.80;99.90
563;DHT22;266;49.514;8.294;2023-09-08T11:41:46;31.10;99.90
563;DHT22;266;49.514;8.294;2023-09-08T11:44:15;31.40;99.90
563;DHT22;266;49.514;8.294;2023-09-08T11:46:44;31.80;99.90
563;DHT22;266;49.514;8.294;2023-09-08T11:49:12;32.20;99.90
563;DHT22;266;49.514;8.294;2023-09-08T11:51:40;32.20;99.90
563;DHT22;266;49.514;8.294;2023-09-08T11:54:08;32.20;99.90
563;DHT22;266;49.514;8.294;2023-09-08T11:56:36;32.20;99.90
563;DHT22;266;49.514;8.294;2023-09-08T11:59:07;32.30;99.90
563;DHT22;266;49.514;8.294;2023-09-08T12:01:36;32.30;99.90
563;DHT22;266;49.514;8.294;2023-09-08T12:04:04;32.20;99.90
563;DHT22;266;49.514;8.294;2023-09-08T12:06:32;32.20;99.90
563;DHT22;266;49.514;8.294;2023-09-08T12:09:00;32.20;99.90
563;DHT22;266;49.514;8.294;2023-09-08T12:11:32;32.60;99.90
563;DHT22;266;49.514;8.294;2023-09-08T12:14:06;32.70;99.90
563;DHT22;266;49.514;8.294;2023-09-08T12:16:36;32.90;99.90
563;DHT22;266;49.514;8.294;2023-09-08T12:19:04;33.10;99.90
563;DHT22;266;49.514;8.294;2023-09-08T12:21:36;33.20;99.90
563;DHT22;266;49.514;8.294;2023-09-08T12:27:36;33.50;99.90
563;DHT22;266;49.514;8.294;2023-09-08T12:30:06;33.70;99.90
563;DHT22;266;49.514;8.294;2023-09-08T12:32:36;34.00;99.90
563;DHT22;266;49.514;8.294;2023-09-08T12:35:05;34.00;99.90
563;DHT22;266;49.514;8.294;2023-09-08T12:37:33;33.80;99.90
563;DHT22;266;49.514;8.294;2023-09-08T12:40:02;34.00;99.90
563;DHT22;266;49.514;8.294;2023-09-08T12:42:30;34.10;99.90
563;DHT22;266;49.514;8.294;2023-09-08T12:45:08;34.30;99.90
563;DHT22;266;49.514;8.294;2023-09-08T12:47:37;34.70;99.90
563;DHT22;266;49.514;8.294;2023-09-08T12:50:06;35.00;99.90
563;DHT22;266;49.514;8.294;2023-09-08T12:52:35;35.40;99.90
563;DHT22;266;49.514;8.294;2023-09-08T12:55:04;35.90;99.90
563;DHT22;266;49.514;8.294;2023-09-08T12:57:33;36.40;99.90
563;DHT22;266;49.514;8.294;2023-09-08T13:00:02;37.00;99.90
563;DHT22;266;49.514;8.294;2023-09-08T13:02:31;36.80;99.90
563;DHT22;266;49.514;8.294;2023-09-08T13:05:00;36.70;99.90
563;DHT22;266;49.514;8.294;2023-09-08T13:07:28;36.60;99.90
563;DHT22;266;49.514;8.294;2023-09-08T13:09:56;36.40;99.90
563;DHT22;266;49.514;8.294;2023-09-08T13:12:24;36.50;99.90
563;DHT22;266;49.514;8.294;2023-09-08T13:14:52;36.40;99.90
563;DHT22;266;49.514;8.294;2023-09-08T13:17:20;36.40;99.90
563;DHT22;266;49.514;8.294;2023-09-08T13:19:48;36.40;99.90
563;DHT22;266;49.514;8.294;2023-09-08T13:22:18;36.40;99.40
563;DHT22;266;49.514;8.294;2023-09-08T13:24:46;36.40;99.00
563;DHT22;266;49.514;8.294;2023-09-08T13:27:14;36.20;98.40
563;DHT22;266;49.514;8.294;2023-09-08T13:29:44;36.20;97.90
563;DHT22;266;49.514;8.294;2023-09-08T13:32:12;35.90;97.30
563;DHT22;266;49.514;8.294;2023-09-08T13:34:40;35.80;97.20
563;DHT22;266;49.514;8.294;2023-09-08T13:37:10;35.70;97.00
563;DHT22;266;49.514;8.294;2023-09-08T13:39:39;36.10;97.00
563;DHT22;266;49.514;8.294;2023-09-08T13:42:08;36.30;95.90
563;DHT22;266;49.514;8.294;2023-09-08T13:44:36;36.20;95.60
563;DHT22;266;49.514;8.294;2023-09-08T13:47:05;36.00;95.30
563;DHT22;266;49.514;8.294;2023-09-08T13:49:33;35.70;95.30
563;DHT22;266;49.514;8.294;2023-09-08T13:52:02;35.20;95.10
563;DHT22;266;49.514;8.294;2023-09-08T13:54:31;34.80;95.50
563;DHT22;266;49.514;8.294;2023-09-08T13:57:03;34.40;95.90
563;DHT22;266;49.514;8.294;2023-09-08T13:59:34;33.90;96.10
563;DHT22;266;49.514;8.294;2023-09-08T14:02:03;33.70;96.60
563;DHT22;266;49.514;8.294;2023-09-08T14:04:34;33.60;95.60
563;DHT22;266;49.514;8.294;2023-09-08T14:07:05;33.20;95.80
563;DHT22;266;49.514;8.294;2023-09-08T14:09:43;32.90;96.10
563;DHT22;266;49.514;8.294;2023-09-08T14:12:21;32.60;96.00
563;DHT22;266;49.514;8.294;2023-09-08T14:14:49;32.20;96.50
563;DHT22;266;49.514;8.294;2023-09-08T14:17:17;32.00;96.20
563;DHT22;266;49.514;8.294;2023-09-08T14:19:45;31.70;96.40
563;DHT22;266;49.514;8.294;2023-09-08T14:22:13;31.50;96.90
563;DHT22;266;49.514;8.294;2023-09-08T14:24:41;31.30;97.40
563;DHT22;266;49.514;8.294;2023-09-08T14:27:09;31.10;97.50
563;DHT22;266;49.514;8.294;2023-09-08T14:29:38;30.80;97.40
563;DHT22;266;49.514;8.294;2023-09-08T14:32:06;30.60;98.00
563;DHT22;266;49.514;8.294;2023-09-08T14:34:34;30.60;98.50
563;DHT22;266;49.514;8.294;2023-09-08T14:37:02;30.50;98.00
563;DHT22;266;49.514;8.294;2023-09-08T14:39:33;30.50;98.50
563;DHT22;266;49.514;8.294;2023-09-08T14:42:00;30.50;97.60
563;DHT22;266;49.514;8.294;2023-09-08T14:44:28;30.40;97.40
563;DHT22;266;49.514;8.294;2023-09-08T14:46:58;30.30;97.80
563;DHT22;266;49.514;8.294;2023-09-08T14:49:26;30.10;97.90
563;DHT22;266;49.514;8.294;2023-09-08T14:51:54;30.00;98.10
563;DHT22;266;49.514;8.294;2023-09-08T14:54:22;30.00;97.80
563;DHT22;266;49.514;8.294;2023-09-08T14:56:50;30.00;98.40
563;DHT22;266;49.514;8.294;2023-09-08T14:59:18;29.90;98.00
563;DHT22;266;49.514;8.294;2023-09-08T15:01:46;29.90;97.90
563;DHT22;266;49.514;8.294;2023-09-08T15:04:18;29.80;98.50
563;DHT22;266;49.514;8.294;2023-09-08T15:06:46;29.80;99.50
563;DHT22;266;49.514;8.294;2023-09-08T15:09:14;29.80;99.40
563;DHT22;266;49.514;8.294;2023-09-08T15:11:42;29.90;99.70
563;DHT22;266;49.514;8.294;2023-09-08T15:14:09;29.90;99.10
563;DHT22;266;49.514;8.294;2023-09-08T15:16:38;29.80;98.90
563;DHT22;266;49.514;8.294;2023-09-08T15:19:06;29.70;99.60
563;DHT22;266;49.514;8.294;2023-09-08T15:21:35;29.80;99.80
563;DHT22;266;49.514;8.294;2023-09-08T15:24:04;29.80;99.60
563;DHT22;266;49.514;8.294;2023-09-08T15:26:32;29.80;99.90
563;DHT22;266;49.514;8.294;2023-09-08T15:29:00;29.70;99.30
563;DHT22;266;49.514;8.294;2023-09-08T15:31:28;29.60;99.90
563;DHT22;266;49.514;8.294;2023-09-08T15:33:56;29.60;99.90
563;DHT22;266;49.514;8.294;2023-09-08T15:36:24;29.70;99.10
563;DHT22;266;49.514;8.294;2023-09-08T15:38:54;29.90;99.90
563;DHT22;266;49.514;8.294;2023-09-08T15:41:22;30.10;99.50
563;DHT22;266;49.514;8.294;2023-09-08T15:43:51;30.30;99.20
563;DHT22;266;49.514;8.294;2023-09-08T15:46:19;30.50;98.90
563;DHT22;266;49.514;8.294;2023-09-08T15:48:48;30.50;99.10
563;DHT22;266;49.514;8.294;2023-09-08T15:51:17;30.50;98.90
563;DHT22;266;49.514;8.294;2023-09-08T15:53:48;30.40;97.90
563;DHT22;266;49.514;8.294;2023-09-08T15:56:17;30.40;97.80
563;DHT22;266;49.514;8.294;2023-09-08T15:58:45;30.50;98.60
563;DHT22;266;49.514;8.294;2023-09-08T16:01:13;30.60;97.30
563;DHT22;266;49.514;8.294;2023-09-08T16:03:41;30.60;97.10
563;DHT22;266;49.514;8.294;2023-09-08T16:06:09;30.60;97.00
563;DHT22;266;49.514;8.294;2023-09-08T16:08:39;30.60;99.30
563;DHT22;266;49.514;8.294;2023-09-08T16:11:07;30.50;96.70
563;DHT22;266;49.514;8.294;2023-09-08T16:13:36;30.40;96.60
563;DHT22;266;49.514;8.294;2023-09-08T16:16:04;30.40;97.60
563;DHT22;266;49.514;8.294;2023-09-08T16:18:33;30.30;96.70
563;DHT22;266;49.514;8.294;2023-09-08T16:21:01;30.30;97.00
563;DHT22;266;49.514;8.294;2023-09-08T16:23:29;30.30;97.20
563;DHT22;266;49.514;8.294;2023-09-08T16:25:57;30.30;97.40
563;DHT22;266;49.514;8.294;2023-09-08T16:28:25;30.30;97.20
563;DHT22;266;49.514;8.294;2023-09-08T16:30:55;30.20;96.90
563;DHT22;266;49.514;8.294;2023-09-08T16:33:23;30.20;98.90
563;DHT22;266;49.514;8.294;2023-09-08T16:35:53;30.10;96.90
563;DHT22;266;49.514;8.294;2023-09-08T16:38:21;30.20;97.30
563;DHT22;266;49.514;8.294;2023-09-08T16:40:49;30.20;98.20
563;DHT22;266;49.514;8.294;2023-09-08T16:43:17;30.10;97.50
563;DHT22;266;49.514;8.294;2023-09-08T16:45:45;30.00;97.30
563;DHT22;266;49.514;8.294;2023-09-08T16:48:14;29.90;97.80
563;DHT22;266;49.514;8.294;2023-09-08T16:50:43;29.90;98.90